createdAt,value
2023-01-21T18:48:26.034Z,16.80
2023-01-21T18:49:25.946Z,28.30
2023-01-21T18:50:25.856Z,40.40
2023-01-21T18:51:25.955Z,55.00
2023-01-21T18:52:25.732Z,56.30
2023-01-21T18:53:25.683Z,53.10
2023-01-21T18:54:25.627Z,45.20
2023-01-21T18:55:25.572Z,42.50
2023-01-21T18:56:25.545Z,53.10
2023-01-21T18:57:25.470Z,55.50
2023-01-21T18:58:25.794Z,54.10
2023-01-21T18:59:25.409Z,47.20
2023-01-21T19:00:25.353Z,41.00
2023-01-21T19:01:25.365Z,30.10
2023-01-21T19:02:25.350Z,25.40
2023-01-21T19:03:25.222Z,24.30
2023-01-21T19:04:25.125Z,21.40
2023-01-21T19:05:25.087Z,22.40
2023-01-21T19:06:25.079Z,22.50
2023-01-21T19:07:25.120Z,22.40
2023-01-21T19:08:24.998Z,24.60
2023-01-21T19:09:24.911Z,23.20
2023-01-21T19:10:24.835Z,22.20
2023-01-21T19:11:24.757Z,22.20
2023-01-21T19:12:24.712Z,21.90
2023-01-21T19:13:24.660Z,22.00
2023-01-21T19:14:24.604Z,22.00
2023-01-21T19:15:24.557Z,22.10
2023-01-21T19:16:24.690Z,21.50
2023-01-21T19:17:24.500Z,22.80
2023-01-21T19:18:24.405Z,21.90
2023-01-21T19:19:24.437Z,24.00
2023-01-21T19:20:24.404Z,24.10
2023-01-21T19:21:24.296Z,24.50
2023-01-21T19:22:24.256Z,24.10
2023-01-21T19:23:24.239Z,27.60
2023-01-21T19:24:24.110Z,24.50
2023-01-21T19:25:24.101Z,26.30
2023-01-21T19:27:07.384Z,24.30
2023-01-21T19:28:07.451Z,25.30
2023-01-21T19:29:07.287Z,24.70
2023-01-21T19:30:07.297Z,24.60
2023-01-21T19:31:07.326Z,23.40
2023-01-21T19:32:07.218Z,24.40
2023-01-21T19:33:07.094Z,26.20
2023-01-21T19:34:07.055Z,23.70
2023-01-21T19:35:06.991Z,25.50
2023-01-21T19:36:07.032Z,26.80
2023-01-21T19:37:06.891Z,25.60
2023-01-21T19:38:06.906Z,26.30
2023-01-21T19:39:06.796Z,28.10
2023-01-21T19:40:06.754Z,26.00
2023-01-21T19:41:06.752Z,27.90
2023-01-21T19:42:08.722Z,27.30
2023-01-21T19:43:06.690Z,25.20
2023-01-21T19:44:06.552Z,25.30
2023-01-21T19:45:06.511Z,26.40
2023-01-21T19:46:06.474Z,27.40
2023-01-21T19:47:06.407Z,27.50
2023-01-21T19:48:06.354Z,30.20
2023-01-21T19:49:06.342Z,27.60
2023-01-21T19:50:06.260Z,28.10
2023-01-21T19:51:06.439Z,28.60
2023-01-21T19:52:06.183Z,31.40
2023-01-21T19:53:06.125Z,29.70
2023-01-21T19:54:06.113Z,28.90
2023-01-21T19:55:06.018Z,29.20
2023-01-21T19:56:06.017Z,30.30
2023-01-21T19:57:05.915Z,28.00
2023-01-21T19:58:05.887Z,30.00
2023-01-21T19:59:05.814Z,29.30
2023-01-21T20:00:05.767Z,31.90
2023-01-21T20:01:05.822Z,29.80
2023-01-21T20:02:05.766Z,31.80
2023-01-21T20:03:05.624Z,31.20
2023-01-21T20:04:05.573Z,31.90
2023-01-21T20:05:05.531Z,29.30
2023-01-21T20:06:05.528Z,28.20
2023-01-21T20:07:05.426Z,31.50
2023-01-21T20:08:05.402Z,31.50
2023-01-21T20:09:05.427Z,32.20
2023-01-21T20:10:05.309Z,32.70
2023-01-21T20:11:05.233Z,33.80
2023-01-21T20:12:06.144Z,32.50
2023-01-21T20:13:05.191Z,30.00
2023-01-21T20:14:05.088Z,31.60
2023-01-21T20:15:05.034Z,30.30
2023-01-21T20:16:05.037Z,31.60
2023-01-21T20:17:04.947Z,32.40
2023-01-21T20:18:04.896Z,35.10
2023-01-21T20:19:04.844Z,32.30
2023-01-21T20:20:04.904Z,30.20
2023-01-21T20:21:04.739Z,31.70
2023-01-21T20:22:04.706Z,31.00
2023-01-21T20:23:04.640Z,34.00
2023-01-21T20:24:04.670Z,32.50
2023-01-21T20:25:04.574Z,30.70
2023-01-21T20:26:04.610Z,32.60
2023-01-21T20:27:05.849Z,30.60
2023-01-21T20:28:04.464Z,32.60
2023-01-21T20:30:02.652Z,33.50
2023-01-21T20:30:47.727Z,32.80
2023-01-21T20:31:47.694Z,31.40
2023-01-21T20:32:47.603Z,30.20
2023-01-21T20:33:47.537Z,33.50
2023-01-21T20:34:47.484Z,34.70
2023-01-21T20:36:47.387Z,34.80
2023-01-21T20:37:47.336Z,38.20
2023-01-21T20:38:47.475Z,36.80
2023-01-21T20:39:47.260Z,38.30
2023-01-21T20:40:47.193Z,41.70
2023-01-21T20:41:47.143Z,39.10
2023-01-21T20:42:47.091Z,38.40
2023-01-21T20:43:47.050Z,37.30
2023-01-21T20:44:46.996Z,40.90
2023-01-21T20:45:46.998Z,36.00
2023-01-21T20:46:46.895Z,36.40
2023-01-21T20:47:50.191Z,35.20
2023-01-21T20:48:46.801Z,35.20
2023-01-21T20:49:46.969Z,37.20
2023-01-21T20:50:46.841Z,34.90
2023-01-21T20:51:46.652Z,34.40
2023-01-21T20:52:46.602Z,37.20
2023-01-21T20:53:46.560Z,35.50
2023-01-21T20:54:46.519Z,35.20
2023-01-21T20:55:46.483Z,34.90
2023-01-21T20:56:46.406Z,39.20
2023-01-21T20:57:46.361Z,42.00
2023-01-21T20:58:46.307Z,41.00
2023-01-21T20:59:46.276Z,41.50
2023-01-21T21:00:46.238Z,41.40
2023-01-21T21:01:46.165Z,42.40
2023-01-21T21:02:46.120Z,41.10
2023-01-21T21:03:46.066Z,39.30
2023-01-21T21:04:46.021Z,41.40
2023-01-21T21:05:45.972Z,41.00
2023-01-21T21:06:45.976Z,37.80
2023-01-21T21:07:45.870Z,38.50
2023-01-21T21:08:45.831Z,40.30
2023-01-21T21:09:45.771Z,40.50
2023-01-21T21:10:45.724Z,41.30
2023-01-21T21:11:45.691Z,41.30
2023-01-21T21:12:45.625Z,40.40
2023-01-21T21:13:45.579Z,38.40
2023-01-21T21:14:45.532Z,38.60
2023-01-21T21:15:46.715Z,38.60
2023-01-21T21:16:45.531Z,39.10
2023-01-21T21:17:45.380Z,40.80
2023-01-21T21:18:45.335Z,41.30
2023-01-21T21:19:45.283Z,40.70
2023-01-21T21:20:45.235Z,39.20
2023-01-21T21:21:45.185Z,39.80
2023-01-21T21:22:45.135Z,41.00
2023-01-21T21:23:45.086Z,44.70
2023-01-21T21:24:45.039Z,43.00
2023-01-21T21:25:44.996Z,41.70
2023-01-21T21:26:44.944Z,41.00
2023-01-21T21:27:44.924Z,47.20
2023-01-21T21:28:44.845Z,41.90
2023-01-21T21:29:44.812Z,43.40
2023-01-21T21:30:44.840Z,38.50
2023-01-21T21:31:44.763Z,40.20
2023-01-21T21:32:44.656Z,40.20
2023-01-21T21:33:44.602Z,40.20
2023-01-21T21:34:47.169Z,40.30
2023-01-21T21:38:10.204Z,41.30
2023-01-21T21:39:10.155Z,43.80
2023-01-21T21:40:10.114Z,42.40
2023-01-21T21:41:10.063Z,40.00
2023-01-21T21:42:10.006Z,41.50
2023-01-21T21:43:09.985Z,46.30
2023-01-21T21:44:09.927Z,39.60
2023-01-21T21:45:09.864Z,45.50
2023-01-21T21:46:09.851Z,43.50
2023-01-21T21:47:09.766Z,41.10
2023-01-21T21:48:09.718Z,44.50
2023-01-21T21:49:09.666Z,43.30
2023-01-21T21:50:09.627Z,42.60
2023-01-21T21:51:09.642Z,44.50
2023-01-21T21:52:09.519Z,41.20
2023-01-21T21:53:09.474Z,43.70
2023-01-21T21:54:09.420Z,40.70
2023-01-21T21:55:09.381Z,39.10
2023-01-21T21:56:09.325Z,39.00
2023-01-21T21:57:09.275Z,37.00
2023-01-21T21:58:09.225Z,33.80
2023-01-21T21:59:09.200Z,40.50
2023-01-21T22:00:09.130Z,37.00
2023-01-21T22:01:09.117Z,36.30
2023-01-21T22:02:09.069Z,34.50
2023-01-21T22:03:08.980Z,32.10
2023-01-21T22:04:08.947Z,33.40
2023-01-21T22:05:08.921Z,35.90
2023-01-21T22:06:08.830Z,37.40
2023-01-21T22:07:08.792Z,34.60
2023-01-21T22:08:08.735Z,34.10
2023-01-21T22:09:08.713Z,34.20
2023-01-21T22:10:08.639Z,32.70
2023-01-21T22:11:08.590Z,33.10
2023-01-21T22:12:08.539Z,35.10
